Time;durP1;ratioP1;P1;durP2;ratioP2;P2;SDS_P1;SDS_P2;PMS_P1;PMS_P2;Temp;Humidity;BMP_temperature;BMP_pressure;BME280_temperature;BME280_humidity;BME280_pressure;Samples;Min_cycle;Max_cycle;Signal;HPM_P1;HPM_P2
2023/07/10 00:00:58;;;;;;;3.70;3.38;;;;;;;;;;5046414;28;20230;-65
2023/07/10 00:03:24;;;;;;;3.45;3.15;;;;;;;;;;5044682;28;20742;-64
2023/07/10 00:05:51;;;;;;;4.63;3.35;;;;;;;;;;5046834;28;20191;-65
2023/07/10 00:08:17;;;;;;;4.50;4.20;;;;;;;;;;5046118;28;20281;-65
2023/07/10 00:10:45;;;;;;;15.85;3.90;;;;;;;;;;5046753;28;20268;-64
2023/07/10 00:13:12;;;;;;;6.15;4.10;;;;;;;;;;5046261;28;20206;-65
2023/07/10 00:15:38;;;;;;;5.25;4.75;;;;;;;;;;5046251;28;20235;-63
2023/07/10 00:18:09;;;;;;;5.15;4.75;;;;;;;;;;5046293;28;20249;-65
2023/07/10 00:20:35;;;;;;;4.57;4.07;;;;;;;;;;5045819;28;20262;-64
2023/07/10 00:23:02;;;;;;;8.93;4.07;;;;;;;;;;5045680;28;20207;-64
2023/07/10 00:25:28;;;;;;;4.60;4.10;;;;;;;;;;5046053;28;20680;-65
2023/07/10 00:27:56;;;;;;;4.90;3.90;;;;;;;;;;5045641;28;20199;-64
2023/07/10 00:30:23;;;;;;;6.03;4.10;;;;;;;;;;5045568;28;20214;-62
2023/07/10 00:32:52;;;;;;;5.63;4.25;;;;;;;;;;5046185;28;20199;-64
2023/07/10 00:35:18;;;;;;;4.18;3.95;;;;;;;;;;5045719;28;20287;-64
2023/07/10 00:37:49;;;;;;;4.53;4.13;;;;;;;;;;5046224;28;20665;-64
2023/07/10 00:40:20;;;;;;;4.30;3.97;;;;;;;;;;5046234;28;20199;-65
2023/07/10 00:42:47;;;;;;;4.32;4.00;;;;;;;;;;5045611;28;20261;-65
2023/07/10 00:45:16;;;;;;;4.35;4.15;;;;;;;;;;5043855;28;20238;-64
2023/07/10 00:47:44;;;;;;;4.88;4.47;;;;;;;;;;5045944;28;20199;-64
2023/07/10 00:50:14;;;;;;;5.78;4.95;;;;;;;;;;5046550;28;20253;-62
2023/07/10 00:52:42;;;;;;;8.77;4.22;;;;;;;;;;5049798;28;20288;-64
2023/07/10 00:55:15;;;;;;;4.30;4.07;;;;;;;;;;5048837;28;20685;-64
2023/07/10 00:57:43;;;;;;;4.70;4.35;;;;;;;;;;5049235;28;20207;-65
2023/07/10 01:00:15;;;;;;;5.32;4.25;;;;;;;;;;5049087;28;20289;-63
2023/07/10 01:02:43;;;;;;;4.60;4.30;;;;;;;;;;5049902;28;20206;-65
2023/07/10 01:05:10;;;;;;;4.80;4.43;;;;;;;;;;5048145;28;20421;-64
2023/07/10 01:07:43;;;;;;;5.60;4.65;;;;;;;;;;5045424;28;20726;-64
2023/07/10 01:10:10;;;;;;;5.10;3.90;;;;;;;;;;5047247;28;20282;-64
2023/07/10 01:12:37;;;;;;;3.97;3.78;;;;;;;;;;5046726;28;20226;-65
2023/07/10 01:15:06;;;;;;;3.80;3.60;;;;;;;;;;5047422;28;20230;-64
2023/07/10 01:17:33;;;;;;;3.80;3.60;;;;;;;;;;5046933;28;20318;-65
2023/07/10 01:20:03;;;;;;;4.38;4.07;;;;;;;;;;5046940;28;20227;-64
2023/07/10 01:22:30;;;;;;;4.60;4.30;;;;;;;;;;5048847;28;20257;-65
2023/07/10 01:24:57;;;;;;;3.67;3.42;;;;;;;;;;5048313;28;20308;-64
2023/07/10 01:27:23;;;;;;;4.68;3.97;;;;;;;;;;5048611;28;20210;-64
2023/07/10 01:29:55;;;;;;;4.57;4.28;;;;;;;;;;5048997;28;20219;-65
2023/07/10 01:32:22;;;;;;;6.15;3.67;;;;;;;;;;5048796;28;20654;-64
2023/07/10 01:34:51;;;;;;;4.40;4.10;;;;;;;;;;5048656;28;20199;-65
2023/07/10 01:37:17;;;;;;;6.60;3.35;;;;;;;;;;5048871;28;20234;-65
2023/07/10 01:39:48;;;;;;;4.65;4.22;;;;;;;23.33;100.00;60395.81;5048386;28;20254;-65
2023/07/10 01:42:14;;;;;;;5.43;4.00;;;;;;;;;;5047910;28;20793;-65
2023/07/10 01:44:42;;;;;;;4.00;3.70;;;;;;;;;;5048802;28;20676;-65
2023/07/10 01:47:09;;;;;;;5.80;3.75;;;;;;;;;;5048002;28;20274;-65
2023/07/10 01:49:38;;;;;;;4.88;4.20;;;;;;;;;;5049049;28;20202;-64
2023/07/10 01:52:07;;;;;;;4.50;4.10;;;;;;;;;;5048551;28;20223;-65
2023/07/10 01:54:33;;;;;;;4.60;4.20;;;;;;;;;;5048915;28;20755;-65
2023/07/10 01:57:01;;;;;;;4.30;3.90;;;;;;;;;;5047601;28;20638;-64
2023/07/10 01:59:29;;;;;;;4.70;4.32;;;;;;;;;;5048594;28;20223;-64
2023/07/10 02:01:55;;;;;;;4.18;3.67;;;;;;;;;;5047531;28;20200;-64
2023/07/10 02:04:22;;;;;;;5.63;5.13;;;;;;;;;;5047975;28;20708;-64
2023/07/10 02:06:49;;;;;;;6.88;4.63;;;;;;;;;;5047951;28;20261;-65
2023/07/10 02:09:16;;;;;;;4.63;4.30;;;;;;;;;;5047730;28;20199;-63
2023/07/10 02:11:42;;;;;;;6.40;4.13;;;;;;;;;;5046943;28;20237;-64
2023/07/10 02:14:10;;;;;;;5.20;4.70;;;;;;;;;;5048322;28;20207;-64
2023/07/10 02:16:36;;;;;;;4.75;4.35;;;;;;;;;;5047015;28;20203;-62
2023/07/10 02:19:04;;;;;;;5.60;4.13;;;;;;;;;;5047514;28;20251;-65
2023/07/10 02:21:31;;;;;;;4.15;3.88;;;;;;;;;;5047174;28;20227;-64
2023/07/10 02:23:57;;;;;;;6.40;4.68;;;;;;;;;;5047824;28;20207;-64
2023/07/10 02:26:24;;;;;;;5.63;4.43;;;;;;;;;;5047478;28;20624;-63
2023/07/10 02:28:50;;;;;;;5.35;4.47;;;;;;;;;;5048320;28;20284;-64
2023/07/10 02:31:18;;;;;;;4.88;4.50;;;;;;;;;;5047437;28;20252;-65
2023/07/10 02:33:44;;;;;;;4.35;4.05;;;;;;;;;;5047453;28;20203;-63
2023/07/10 02:36:11;;;;;;;4.88;4.32;;;;;;;;;;5047149;28;20227;-64
2023/07/10 02:38:37;;;;;;;5.18;4.78;;;;;;;;;;5047166;28;20261;-63
2023/07/10 02:41:04;;;;;;;5.78;4.57;;;;;;;;;;5047165;28;20207;-64
2023/07/10 02:43:30;;;;;;;5.50;5.10;;;;;;;;;;5046882;28;20237;-62
2023/07/10 02:45:57;;;;;;;4.75;4.43;;;;;;;;;;5045240;28;20231;-63
2023/07/10 02:48:24;;;;;;;6.18;4.22;;;;;;;;;;5047215;28;20241;-62
2023/07/10 02:50:51;;;;;;;4.40;3.67;;;;;;;;;;5045765;28;20278;-63
2023/07/10 02:53:17;;;;;;;7.22;4.40;;;;;;;;;;5046483;28;20226;-64
2023/07/10 02:55:44;;;;;;;8.77;4.55;;;;;;;;;;5046670;28;20202;-64
2023/07/10 02:58:10;;;;;;;6.30;4.72;;;;;;;;;;5045833;28;20681;-63
2023/07/10 03:00:37;;;;;;;5.45;5.03;;;;;;;;;;5047183;28;20246;-63
2023/07/10 03:03:04;;;;;;;4.63;4.32;;;;;;;23.41;0.00;76284.97;5045918;28;20582;-64
2023/07/10 03:05:32;;;;;;;7.65;4.55;;;;;;;;;;5045551;28;20734;-63
2023/07/10 03:07:58;;;;;;;5.13;4.55;;;;;;;;;;5046064;28;20245;-63
2023/07/10 03:10:25;;;;;;;5.10;4.40;;;;;;;;;;5045459;28;20257;-63
2023/07/10 03:12:51;;;;;;;5.38;4.32;;;;;;;;;;5045734;28;20257;-64
2023/07/10 03:15:18;;;;;;;6.38;4.50;;;;;;;;;;5045328;28;20657;-64
2023/07/10 03:17:45;;;;;;;4.72;4.43;;;;;;;;;;5045768;28;20249;-64
2023/07/10 03:20:12;;;;;;;9.57;4.40;;;;;;;;;;5047274;28;20782;-63
2023/07/10 03:22:40;;;;;;;4.30;3.88;;;;;;;;;;5047016;28;20238;-64
2023/07/10 03:25:06;;;;;;;5.15;4.55;;;;;;;;;;5048077;28;20235;-64
2023/07/10 03:27:33;;;;;;;7.68;4.25;;;;;;;;;;5046654;28;20246;-64
2023/07/10 03:29:59;;;;;;;5.00;4.07;;;;;;;;;;5047069;28;20260;-64
2023/07/10 03:32:26;;;;;;;8.32;4.53;;;;;;;;;;5046594;28;20199;-64
2023/07/10 03:34:52;;;;;;;6.75;4.60;;;;;;;;;;5047617;28;20227;-65
2023/07/10 03:37:19;;;;;;;5.00;3.92;;;;;;;;;;5046816;28;20296;-64
2023/07/10 03:39:46;;;;;;;4.28;3.88;;;;;;;;;;5047347;28;20679;-64
2023/07/10 03:42:13;;;;;;;4.88;4.57;;;;;;;;;;5046074;28;20230;-64
2023/07/10 03:44:39;;;;;;;5.10;4.40;;;;;;;;;;5047394;28;20210;-63
2023/07/10 03:47:06;;;;;;;4.18;3.88;;;;;;;;;;5046334;28;20584;-65
2023/07/10 03:49:33;;;;;;;6.15;3.72;;;;;;;;;;5047266;28;20245;-65
2023/07/10 03:51:59;;;;;;;5.18;4.68;;;;;;;;;;5045568;28;20805;-64
2023/07/10 03:54:26;;;;;;;6.15;3.60;;;;;;;;;;5047591;28;20239;-65
2023/07/10 03:56:54;;;;;;;4.72;3.63;;;;;;;;;;5046260;28;20767;-65
2023/07/10 03:59:20;;;;;;;4.65;4.20;;;;;;;;;;5046948;28;20284;-65
2023/07/10 04:01:47;;;;;;;6.43;4.75;;;;;;;;;;5046359;28;20240;-64
2023/07/10 04:04:13;;;;;;;5.90;4.20;;;;;;;;;;5047091;28;20308;-64
2023/07/10 04:06:39;;;;;;;4.72;4.28;;;;;;;;;;5046687;28;20210;-65
2023/07/10 04:09:06;;;;;;;9.88;4.72;;;;;;;;;;5046917;28;20303;-65
2023/07/10 04:11:33;;;;;;;5.03;4.55;;;;;;;;;;5046366;28;21337;-67
2023/07/10 04:14:01;;;;;;;7.00;4.10;;;;;;;;;;5046787;28;20199;-64
2023/07/10 04:16:28;;;;;;;10.20;5.57;;;;;;;;;;5046101;28;20195;-63
2023/07/10 04:18:55;;;;;;;3.75;3.38;;;;;;;;;;5047037;28;20248;-65
2023/07/10 04:21:23;;;;;;;9.77;3.83;;;;;;;;;;5045451;28;20323;-65
2023/07/10 04:23:49;;;;;;;18.90;15.23;;;;;;;;;;5046964;28;20207;-64
2023/07/10 04:26:17;;;;;;;17.85;14.00;;;;;;;;;;5050033;28;20257;-64
2023/07/10 04:28:43;;;;;;;16.20;11.95;;;;;;;;;;5050899;28;20199;-65
2023/07/10 04:31:11;;;;;;;11.63;7.20;;;;;;;;;;5050279;28;20195;-65
2023/07/10 04:33:38;;;;;;;7.90;6.43;;;;;;;;;;5049861;28;20203;-66
2023/07/10 04:36:04;;;;;;;5.47;4.95;;;;;;;;;;5050056;28;20257;-65
2023/07/10 04:38:31;;;;;;;5.72;5.00;;;;;;;;;;5050619;28;20219;-65
2023/07/10 04:40:58;;;;;;;5.72;5.25;;;;;;;;;;5049942;28;20280;-66
2023/07/10 04:43:26;;;;;;;4.75;4.30;;;;;;;;;;5050026;28;20230;-66
2023/07/10 04:45:53;;;;;;;5.45;4.47;;;;;;;;;;5048617;28;20262;-67
2023/07/10 04:48:21;;;;;;;4.68;4.28;;;;;;;;;;5049831;28;20943;-65
2023/07/10 04:50:48;;;;;;;4.80;4.30;;;;;;;;;;5048108;28;20291;-66
2023/07/10 04:53:15;;;;;;;12.27;11.02;;;;;;;;;;5049828;28;20204;-64
2023/07/10 04:55:41;;;;;;;18.05;11.70;;;;;;;;;;5050229;28;20237;-63
2023/07/10 04:58:08;;;;;;;23.63;19.05;;;;;;;;;;5049792;28;20261;-67
2023/07/10 05:00:34;;;;;;;13.95;9.05;;;;;;;;;;5049215;28;20255;-65
2023/07/10 05:03:01;;;;;;;11.25;6.68;;;;;;;;;;5047689;28;20195;-65
2023/07/10 05:05:28;;;;;;;11.45;6.55;;;;;;;;;;5048219;28;20257;-65
2023/07/10 05:07:55;;;;;;;9.77;8.30;;;;;;;;;;5047703;28;20207;-65
2023/07/10 05:10:21;;;;;;;7.50;6.80;;;;;;;;;;5048463;28;20595;-65
2023/07/10 05:12:48;;;;;;;7.80;6.80;;;;;;;;;;5047236;28;20234;-65
2023/07/10 05:15:14;;;;;;;13.23;7.10;;;;;;;;;;5047001;28;20677;-65
2023/07/10 05:17:41;;;;;;;6.30;5.80;;;;;;;;;;5049335;28;20227;-66
2023/07/10 05:20:08;;;;;;;11.32;7.15;;;;;;;;;;5049242;28;20313;-66
2023/07/10 05:22:36;;;;;;;8.32;5.90;;;;;;;;;;5049095;28;20256;-66
2023/07/10 05:25:02;;;;;;;7.05;5.38;;;;;;;;;;5049112;28;20202;-65
2023/07/10 05:27:29;;;;;;;8.07;5.60;;;;;;;;;;5048940;28;20235;-66
2023/07/10 05:29:55;;;;;;;8.65;5.97;;;;;;;;;;5049298;28;20203;-66
2023/07/10 05:32:22;;;;;;;10.55;6.70;;;;;;;;;;5048297;28;20245;-65
2023/07/10 05:34:48;;;;;;;8.13;5.85;;;;;;;;;;5048907;28;20233;-65
2023/07/10 05:37:14;;;;;;;8.15;5.57;;;;;;;;;;5047203;28;20207;-65
2023/07/10 05:39:42;;;;;;;6.68;4.72;;;;;;;;;;5049029;28;20238;-66
2023/07/10 05:42:09;;;;;;;8.18;5.22;;;;;;;;;;5049355;28;20243;-65
2023/07/10 05:44:35;;;;;;;11.40;5.57;;;;;;;;;;5049391;28;20235;-66
2023/07/10 05:47:02;;;;;;;5.15;4.57;;;;;;;;;;5047977;28;20238;-64
2023/07/10 05:49:31;;;;;;;8.00;4.65;;;;;;;;;;5048850;28;20296;-65
2023/07/10 05:51:58;;;;;;;11.32;4.60;;;;;;;;;;5048854;28;20309;-65
2023/07/10 05:54:24;;;;;;;11.88;5.40;;;;;;;;;;5048798;28;20206;-65
2023/07/10 05:56:52;;;;;;;5.15;4.75;;;;;;;;;;5048302;28;20211;-66
2023/07/10 05:59:18;;;;;;;6.53;5.93;;;;;;;;;;5048708;28;20241;-66
2023/07/10 06:01:45;;;;;;;5.95;5.20;;;;;;;;;;5047734;28;20242;-64
2023/07/10 06:04:11;;;;;;;10.95;4.82;;;;;;;;;;5048581;28;20256;-66
2023/07/10 06:06:37;;;;;;;9.00;7.07;;;;;;;;;;5048535;28;20203;-65
2023/07/10 06:09:04;;;;;;;5.90;5.30;;;;;;;;;;5048562;28;20282;-66
2023/07/10 06:11:30;;;;;;;7.07;5.10;;;;;;;;;;5048616;28;20249;-64
2023/07/10 06:13:58;;;;;;;5.00;4.60;;;;;;;;;;5048445;28;20199;-65
2023/07/10 06:16:25;;;;;;;7.78;5.20;;;;;;;;;;5047290;28;20207;-65
2023/07/10 06:18:51;;;;;;;5.07;4.63;;;;;;;;;;5048239;28;20246;-65
2023/07/10 06:21:17;;;;;;;4.65;4.32;;;;;;;;;;5046405;28;20227;-65
2023/07/10 06:23:44;;;;;;;9.77;4.15;;;;;;;;;;5046748;28;20239;-65
2023/07/10 06:26:10;;;;;;;7.32;4.32;;;;;;;;;;5046497;28;20202;-67
2023/07/10 06:28:37;;;;;;;4.88;4.57;;;;;;;;;;5047737;28;20265;-67
2023/07/10 06:31:05;;;;;;;12.77;7.00;;;;;;;;;;5047145;28;20894;-65
2023/07/10 06:33:33;;;;;;;6.13;5.53;;;;;;;;;;5046730;28;20260;-65
2023/07/10 06:35:59;;;;;;;4.88;4.38;;;;;;;;;;5046507;28;20203;-65
2023/07/10 06:38:26;;;;;;;4.63;4.03;;;;;;;;;;5047336;28;20198;-67
2023/07/10 06:40:52;;;;;;;7.05;3.72;;;;;;;;;;5047513;28;20230;-66
2023/07/10 06:43:20;;;;;;;6.60;4.25;;;;;;;;;;5047481;28;20202;-64
2023/07/10 06:45:46;;;;;;;4.03;3.83;;;;;;;;;;5046144;28;20205;-66
2023/07/10 06:48:14;;;;;;;6.78;4.07;;;;;;;;;;5046563;28;20197;-65
2023/07/10 06:50:42;;;;;;;4.00;3.80;;;;;;;50.68;nan;95659.97;5046729;28;20202;-64
2023/07/10 06:53:08;;;;;;;4.38;3.95;;;;;;;51.17;nan;95662.28;5047447;28;20226;-65
2023/07/10 06:55:35;;;;;;;4.95;3.33;;;;;;;;;;5047092;28;20199;-64
2023/07/10 06:58:02;;;;;;;3.78;3.50;;;;;;;51.55;nan;95645.97;5047954;28;20229;-64
2023/07/10 07:00:29;;;;;;;5.93;4.80;;;;;;;51.41;nan;95651.38;5047128;28;20328;-64
2023/07/10 07:02:55;;;;;;;4.97;4.53;;;;;;;50.59;nan;95640.84;5046017;28;20202;-63
2023/07/10 07:05:23;;;;;;;3.92;3.72;;;;;;;50.35;nan;95640.84;5045941;28;20207;-64
2023/07/10 07:07:50;;;;;;;4.28;3.90;;;;;;;;;;5045384;28;20312;-64
2023/07/10 07:10:17;;;;;;;5.07;3.70;;;;;;;50.29;nan;95633.88;5045861;28;20610;-64
2023/07/10 07:12:44;;;;;;;3.90;3.55;;;;;;;49.23;nan;95634.84;5045180;28;20206;-64
2023/07/10 07:15:12;;;;;;;3.78;3.58;;;;;;;46.70;nan;95639.50;5043957;28;20207;-65
2023/07/10 07:17:39;;;;;;;3.78;3.33;;;;;;;45.65;nan;95636.72;5045392;28;20206;-64
2023/07/10 07:20:07;;;;;;;3.97;3.38;;;;;;;46.31;nan;95639.84;5046444;28;20229;-64
2023/07/10 07:22:34;;;;;;;4.18;3.88;;;;;;;;;;5047140;28;20194;-64
2023/07/10 07:25:01;;;;;;;5.05;3.47;;;;;;;48.35;nan;95632.81;5047327;28;20291;-64
2023/07/10 07:27:31;;;;;;;5.28;4.70;;;;;;;49.01;nan;95633.31;5045383;28;20198;-64
2023/07/10 07:29:58;;;;;;;4.72;4.38;;;;;;;49.69;nan;95617.19;5046116;28;20642;-64
2023/07/10 07:32:25;;;;;;;6.65;5.45;;;;;;;49.30;nan;95614.50;5046885;28;20203;-65
2023/07/10 07:34:51;;;;;;;9.93;7.07;;;;;;;48.81;nan;95628.00;5047288;28;20230;-64
2023/07/10 07:37:18;;;;;;;7.78;7.03;;;;;;;49.14;nan;95620.28;5046991;28;20207;-64
2023/07/10 07:39:46;;;;;;;6.93;5.53;;;;;;;49.44;nan;95624.69;5047453;28;20202;-66
2023/07/10 07:42:13;;;;;;;7.05;6.35;;;;;;;49.38;nan;95621.22;5046978;28;20309;-65
2023/07/10 07:44:39;;;;;;;5.57;5.15;;;;;;;49.75;nan;95615.22;5046674;28;20210;-65
2023/07/10 07:47:06;;;;;;;6.85;3.58;;;;;;;49.84;nan;95618.13;5047087;28;20206;-65
2023/07/10 07:49:33;;;;;;;4.00;3.70;;;;;;;49.70;nan;95613.38;5046794;28;20640;-65
2023/07/10 07:52:00;;;;;;;3.90;3.67;;;;;;;49.31;nan;95615.31;5046652;28;20218;-65
2023/07/10 07:54:26;;;;;;;5.47;5.00;;;;;;;48.63;nan;95610.59;5046362;28;20222;-64
2023/07/10 07:56:55;;;;;;;5.10;4.80;;;;;;;48.81;nan;95617.22;5044618;28;20651;-65
2023/07/10 07:59:22;;;;;;;4.55;4.15;;;;;;;49.34;nan;95609.34;5046520;28;20194;-64
2023/07/10 08:01:50;;;;;;;4.70;4.40;;;;;;;49.43;nan;95613.06;5046692;28;20233;-64
2023/07/10 08:04:17;;;;;;;4.35;4.00;;;;;;;49.51;nan;95615.13;5046914;28;20688;-66
2023/07/10 08:06:43;;;;;;;3.92;3.67;;;;;;;49.43;nan;95613.06;5046260;28;20672;-64
2023/07/10 08:09:10;;;;;;;4.25;3.75;;;;;;;47.94;nan;95613.22;5047120;28;20260;-65
2023/07/10 08:11:37;;;;;;;3.63;3.40;;;;;;;48.24;nan;95609.66;5046052;28;20194;-64
2023/07/10 08:14:05;;;;;;;4.57;3.85;;;;;;;49.04;nan;95603.06;5047377;28;20637;-65
2023/07/10 08:16:31;;;;;;;3.90;3.70;;;;;;;48.84;nan;95595.09;5045846;28;20245;-64
2023/07/10 08:18:58;;;;;;;4.50;3.17;;;;;;;48.78;nan;95596.19;5046390;28;20206;-65
2023/07/10 08:21:25;;;;;;;5.68;3.40;;;;;;;48.60;nan;95567.97;5045606;28;20319;-64
2023/07/10 08:23:51;;;;;;;4.07;3.63;;;;;;;48.93;nan;95598.84;5046993;28;20202;-64
2023/07/10 08:26:18;;;;;;;3.85;3.45;;;;;;;48.59;nan;95592.53;5046101;28;20229;-64
2023/07/10 08:28:45;;;;;;;3.30;3.10;;;;;;;48.77;nan;95607.25;5046490;28;20259;-64
2023/07/10 08:31:13;;;;;;;3.60;3.40;;;;;;;;;;5046395;28;20205;-64
2023/07/10 08:33:39;;;;;;;4.15;3.78;;;;;;;49.02;nan;95591.75;5046596;28;20226;-65
2023/07/10 08:36:07;;;;;;;3.78;3.47;;;;;;;48.76;nan;95582.16;5045775;28;20201;-63
2023/07/10 08:38:36;;;;;;;3.92;3.72;;;;;;;49.33;nan;95591.53;5047001;28;20657;-65
2023/07/10 08:41:13;;;;;;;3.28;3.08;;;;;;;48.75;nan;95593.28;5045839;28;20268;-65
2023/07/10 08:43:41;;;;;;;3.50;3.30;;;;;;;48.69;nan;95608.69;5045711;28;20230;-64
2023/07/10 08:46:12;;;;;;;3.95;3.63;;;;;;;48.95;nan;95568.88;5044806;28;20225;-64
2023/07/10 08:48:47;;;;;;;3.55;3.38;;;;;;;49.22;nan;95596.22;5044483;28;20199;-64
2023/07/10 08:51:35;;;;;;;5.55;3.50;;;;;;;48.28;nan;95603.44;5044617;28;20275;-65
2023/07/10 08:54:05;;;;;;;3.85;3.55;;;;;;;48.65;nan;95596.81;5044571;28;20207;-64
2023/07/10 08:56:35;;;;;;;3.97;3.38;;;;;;;48.13;nan;95603.47;5044574;28;20300;-63
2023/07/10 08:59:24;;;;;;;3.95;3.65;;;;;;;47.83;nan;95604.34;5044512;28;20775;-63
2023/07/10 09:01:51;;;;;;;5.97;3.80;;;;;;;47.72;nan;95595.47;5045590;28;20223;-65
2023/07/10 09:04:20;;;;;;;3.97;3.65;;;;;;;48.23;nan;95600.78;5046323;28;20280;-65
2023/07/10 09:06:50;;;;;;;3.72;3.53;;;;;;;48.52;nan;95586.63;5046174;28;20203;-65
2023/07/10 09:09:36;;;;;;;3.78;3.58;;;;;;;45.54;nan;95583.97;5046092;28;20202;-65
2023/07/10 09:12:08;;;;;;;3.53;3.17;;;;;;;41.16;nan;95597.53;5049839;28;20199;-66
2023/07/10 09:14:37;;;;;;;3.20;3.10;;;;;;;;;;5049574;28;20207;-64
2023/07/10 09:17:12;;;;;;;3.55;3.30;;;;;;;;;;5049806;28;20235;-65
2023/07/10 09:19:40;;;;;;;3.63;3.33;;;;;;;;;;5049570;28;20202;-65
2023/07/10 09:22:10;;;;;;;4.97;2.97;;;;;;;;;;5049452;28;20761;-63
2023/07/10 09:24:36;;;;;;;3.60;3.28;;;;;;;;;;5049157;28;20650;-65
2023/07/10 09:27:05;;;;;;;3.88;3.15;;;;;;;;;;5049629;28;20237;-65
2023/07/10 09:29:33;;;;;;;3.35;3.15;;;;;;;;;;5049259;28;20256;-65
2023/07/10 09:32:03;;;;;;;3.78;3.38;;;;;;;;;;5049165;28;20191;-65
2023/07/10 09:34:32;;;;;;;3.33;3.13;;;;;;;40.05;nan;95586.28;5048820;28;20281;-64
2023/07/10 09:37:03;;;;;;;3.10;3.00;;;;;;;38.00;nan;95591.25;5047266;28;20207;-62
2023/07/10 09:39:32;;;;;;;3.53;3.25;;;;;;;37.82;nan;95583.13;5048873;28;20198;-62
2023/07/10 09:41:59;;;;;;;3.35;3.15;;;;;;;;;;5048602;28;20284;-65
2023/07/10 09:44:31;;;;;;;3.63;3.42;;;;;;;;;;5048682;28;20199;-63
2023/07/10 09:47:00;;;;;;;3.70;3.25;;;;;;;;;;5048491;28;20234;-64
2023/07/10 09:49:33;;;;;;;3.47;3.38;;;;;;;36.75;nan;95586.75;5049426;28;20249;-65
2023/07/10 09:52:01;;;;;;;3.65;3.47;;;;;;;;;;5048963;28;20254;-65
2023/07/10 09:54:35;;;;;;;3.70;3.42;;;;;;;;;;5048826;28;20618;-65
2023/07/10 09:57:03;;;;;;;3.33;3.13;;;;;;;;;;5048649;28;20217;-66
2023/07/10 09:59:31;;;;;;;2.92;2.75;;;;;;;;;;5048884;28;20213;-65
2023/07/10 10:02:03;;;;;;;3.63;3.42;;;;;;;;;;5048471;28;20215;-65
2023/07/10 10:04:31;;;;;;;2.90;2.80;;;;;;;;;;5048753;28;20206;-65
2023/07/10 10:07:01;;;;;;;3.75;2.90;;;;;;;;;;5048976;28;20205;-66
2023/07/10 10:09:29;;;;;;;2.95;2.75;;;;;;;;;;5048552;28;20195;-65
2023/07/10 10:11:58;;;;;;;3.17;2.80;;;;;;;;;;5047579;28;20206;-64
2023/07/10 10:14:31;;;;;;;3.65;3.25;;;;;;;;;;5048266;28;20203;-64
2023/07/10 10:16:59;;;;;;;3.95;3.00;;;;;;;;;;5048792;28;20203;-64
2023/07/10 10:19:27;;;;;;;3.25;2.95;;;;;;;;;;5048594;28;20230;-64
2023/07/10 10:21:54;;;;;;;3.72;3.50;;;;;;;;;;5043583;28;20263;-65
2023/07/10 10:24:20;;;;;;;3.63;3.42;;;;;;;;;;5048346;28;20234;-64
2023/07/10 10:26:57;;;;;;;3.63;3.30;;;;;;;;;;5047866;28;20273;-64
2023/07/10 10:29:31;;;;;;;3.42;3.13;;;;;;;;;;5048534;28;20202;-64
2023/07/10 10:32:01;;;;;;;3.90;3.70;;;;;;;;;;5047512;28;20194;-64
2023/07/10 10:34:34;;;;;;;2.80;2.70;;;;;;;;;;5047817;28;20226;-63
2023/07/10 10:37:09;;;;;;;3.78;3.45;;;;;;;;;;5047602;28;20728;-64
2023/07/10 10:39:37;;;;;;;2.97;2.78;;;;;;;;;;5048085;28;20699;-63
2023/07/10 10:42:11;;;;;;;4.10;3.30;;;;;;;;;;5047796;28;20311;-65
2023/07/10 10:44:43;;;;;;;3.60;3.28;;;;;;;;;;5047922;28;20676;-63
2023/07/10 10:47:19;;;;;;;3.75;3.45;;;;;;;;;;5045958;28;20697;-65
2023/07/10 10:50:03;;;;;;;3.15;2.97;;;;;;;;;;5046938;28;20554;-64
2023/07/10 10:52:35;;;;;;;3.25;3.05;;;;;;;;;;5045193;28;20728;-63
2023/07/10 10:55:16;;;;;;;3.92;3.25;;;;;;;;;;5046363;28;20231;-64
2023/07/10 10:57:49;;;;;;;4.68;3.67;;;;;;;;;;5043457;28;20203;-64
2023/07/10 11:00:22;;;;;;;3.38;3.17;;;;;;;;;;5046573;28;20239;-64
2023/07/10 11:02:55;;;;;;;3.00;2.80;;;;;;;;;;5047591;28;20234;-65
2023/07/10 11:05:28;;;;;;;3.05;2.95;;;;;;;;;;5047564;28;20632;-64
2023/07/10 11:07:56;;;;;;;4.88;3.10;;;;;;;;;;5047701;28;20745;-65
2023/07/10 11:10:27;;;;;;;4.45;3.33;;;;;;;;;;5047536;28;20264;-65
2023/07/10 11:12:55;;;;;;;3.30;2.85;;;;;;;;;;5047414;28;20191;-65
2023/07/10 11:15:23;;;;;;;2.83;2.70;;;;;;;;;;5047743;28;20249;-63
2023/07/10 11:17:53;;;;;;;2.72;2.53;;;;;;;29.59;nan;95478.16;5046968;28;20191;-65
2023/07/10 11:20:20;;;;;;;6.07;3.05;;;;;;;;;;5047335;28;20327;-65
2023/07/10 11:22:50;;;;;;;3.45;3.25;;;;;;;;;;5046364;28;20889;-64
2023/07/10 11:25:29;;;;;;;3.38;3.17;;;;;;;;;;5047815;28;20259;-65
2023/07/10 11:27:56;;;;;;;4.80;3.70;;;;;;;;;;5046637;28;20692;-65
2023/07/10 11:30:31;;;;;;;4.47;3.65;;;;;;;;;;5047728;28;20195;-64
2023/07/10 11:32:58;;;;;;;4.10;3.80;;;;;;;;;;5047033;28;20198;-63
2023/07/10 11:35:25;;;;;;;4.10;3.42;;;;;;;;;;5047282;28;20226;-65
2023/07/10 11:38:06;;;;;;;3.88;3.45;;;;;;;;;;5046721;28;20195;-66
2023/07/10 11:40:57;;;;;;;3.72;3.53;;;;;;;;;;5046728;28;20745;-65
2023/07/10 11:43:57;;;;;;;4.18;3.20;;;;;;;;;;5047049;28;20781;-65
2023/07/10 11:46:29;;;;;;;4.28;3.20;;;;;;;;;;5047509;28;20199;-65
2023/07/10 11:49:16;;;;;;;3.60;3.30;;;;;;;;;;5046240;28;20203;-64
2023/07/10 11:51:43;;;;;;;4.00;3.20;;;;;;;;;;5046773;28;20693;-65
2023/07/10 11:54:28;;;;;;;3.88;3.40;;;;;;;;;;5046925;28;20571;-64
2023/07/10 11:57:02;;;;;;;4.00;3.30;;;;;;;;;;5046858;28;20261;-65
2023/07/10 11:59:29;;;;;;;4.57;3.28;;;;;;;;;;5046474;28;20267;-65
2023/07/10 12:01:57;;;;;;;3.25;3.05;;;;;;;;;;5046348;28;20731;-64
2023/07/10 12:04:25;;;;;;;3.20;2.88;;;;;;;;;;5046901;28;20226;-63
2023/07/10 12:06:52;;;;;;;2.90;2.70;;;;;;;;;;5046330;28;20201;-64
2023/07/10 12:09:18;;;;;;;3.78;3.50;;;;;;;;;;5046410;28;20207;-65
2023/07/10 12:11:46;;;;;;;3.72;3.10;;;;;;;;;;5044907;28;20227;-63
2023/07/10 12:14:14;;;;;;;3.38;3.20;;;;;;;;;;5046574;28;20570;-63
2023/07/10 12:16:44;;;;;;;3.60;3.28;;;;;;;;;;5045885;28;20696;-64
2023/07/10 12:19:15;;;;;;;3.08;2.90;;;;;;;;;;5046414;28;20199;-65
2023/07/10 12:21:43;;;;;;;4.13;3.40;;;;;;;;;;5045844;28;20227;-63
2023/07/10 12:24:13;;;;;;;3.67;3.33;;;;;;;;;;5046594;28;20202;-64
2023/07/10 12:26:39;;;;;;;3.83;3.55;;;;;;;;;;5046786;28;20226;-64
2023/07/10 12:29:10;;;;;;;4.05;3.55;;;;;;;;;;5046353;28;20235;-66
2023/07/10 12:31:38;;;;;;;4.65;3.40;;;;;;;;;;5046540;28;20639;-65
2023/07/10 12:34:05;;;;;;;3.28;2.97;;;;;;;;;;5046174;28;20207;-65
2023/07/10 12:36:34;;;;;;;3.40;3.10;;;;;;;;;;5046451;28;20202;-65
2023/07/10 12:39:02;;;;;;;2.97;2.78;;;;;;;;;;5046346;28;20288;-64
2023/07/10 12:41:32;;;;;;;3.28;3.17;;;;;;;;;;5046579;28;20230;-63
2023/07/10 12:44:01;;;;;;;3.63;3.33;;;;;;;;;;5046129;28;20302;-64
2023/07/10 12:46:29;;;;;;;4.22;3.00;;;;;;;;;;5047913;28;20206;-64
2023/07/10 12:48:58;;;;;;;3.40;3.20;;;;;;;;;;5050077;28;20264;-64
2023/07/10 12:51:27;;;;;;;4.95;4.20;;;;;;;;;;5049295;28;20242;-64
2023/07/10 12:53:55;;;;;;;4.03;3.60;;;;;;;;;;5049766;28;20226;-63
2023/07/10 12:56:26;;;;;;;3.53;3.33;;;;;;;;;;5049397;28;20230;-63
2023/07/10 12:58:53;;;;;;;3.20;3.00;;;;;;;;;;5050429;28;20245;-63
2023/07/10 13:01:20;;;;;;;3.45;3.25;;;;;;;;;;5049619;28;20199;-65
2023/07/10 13:03:58;;;;;;;3.97;3.33;;;;;;;;;;5049040;28;20230;-65
2023/07/10 13:06:25;;;;;;;4.28;3.90;;;;;;;;;;5047807;28;20195;-63
2023/07/10 13:08:51;;;;;;;6.20;3.50;;;;;;;;;;5048761;28;20214;-63
2023/07/10 13:11:22;;;;;;;3.40;3.20;;;;;;;;;;5047907;28;21061;-64
2023/07/10 13:13:48;;;;;;;5.18;3.50;;;;;;;;;;5047931;28;20230;-62
2023/07/10 13:16:17;;;;;;;3.33;3.08;;;;;;;;;;5047707;28;20292;-63
2023/07/10 13:18:43;;;;;;;7.80;3.72;;;;;;;;;;5047835;28;20579;-63
2023/07/10 13:21:14;;;;;;;3.72;3.42;;;;;;;;;;5048434;28;20258;-63
2023/07/10 13:23:40;;;;;;;3.65;3.28;;;;;;;;;;5049991;28;20225;-63
2023/07/10 13:26:15;;;;;;;5.32;3.50;;;;;;;;;;5049106;28;20207;-64
2023/07/10 13:28:43;;;;;;;3.38;3.17;;;;;;;;;;5049396;28;21063;-63
2023/07/10 13:31:10;;;;;;;3.42;3.22;;;;;;;;;;5048496;28;20620;-64
2023/07/10 13:33:37;;;;;;;3.38;3.13;;;;;;;;;;5048999;28;20266;-64
2023/07/10 13:36:09;;;;;;;6.65;3.08;;;;;;;;;;5048819;28;20243;-63
2023/07/10 13:38:35;;;;;;;5.53;3.38;;;;;;;;;;5049219;28;20944;-65
2023/07/10 13:41:02;;;;;;;3.30;3.13;;;;;;;;;;5048815;28;20226;-62
2023/07/10 13:43:29;;;;;;;3.45;3.00;;;;;;;;;;5049041;28;20226;-64
2023/07/10 13:45:59;;;;;;;3.80;3.50;;;;;;;;;;5048984;28;20744;-64
2023/07/10 13:48:26;;;;;;;4.25;3.58;;;;;;;;;;5048789;28;20286;-64
2023/07/10 13:50:53;;;;;;;4.25;3.63;;;;;;;;;;5048856;28;20257;-64
2023/07/10 13:53:21;;;;;;;4.10;3.75;;;;;;;;;;5048974;28;20296;-62
2023/07/10 13:55:48;;;;;;;3.50;3.20;;;;;;;;;;5049055;28;20195;-63
2023/07/10 13:58:19;;;;;;;4.60;3.55;;;;;;;;;;5048079;28;20252;-64
2023/07/10 14:00:45;;;;;;;4.10;3.80;;;;;;;;;;5048681;28;20199;-63
2023/07/10 14:03:14;;;;;;;5.57;4.05;;;;;;;;;;5048888;28;20225;-63
2023/07/10 14:05:41;;;;;;;3.88;3.67;;;;;;;;;;5048596;28;20206;-64
2023/07/10 14:08:20;;;;;;;3.75;3.45;;;;;;;;;;5048572;28;20253;-63
2023/07/10 14:10:47;;;;;;;5.05;3.97;;;;;;;;;;5048678;28;20253;-62
2023/07/10 14:13:13;;;;;;;4.57;3.70;;;;;;;;;;5048230;28;20244;-63